createdAt,value
2019-01-10T00:01:18.426Z,12.55
2019-01-10T00:03:59.759Z,12.57
2019-01-10T00:06:40.229Z,12.64
2019-01-10T00:09:20.911Z,12.71
2019-01-10T00:12:02.068Z,12.74
2019-01-10T00:14:42.228Z,12.85
2019-01-10T00:17:23.059Z,12.71
2019-01-10T00:20:03.895Z,12.56
2019-01-10T00:22:44.938Z,12.61
2019-01-10T00:25:25.587Z,12.66
2019-01-10T00:28:06.163Z,12.52
2019-01-10T00:30:46.753Z,12.54
2019-01-10T00:33:27.684Z,12.45
2019-01-10T00:36:08.263Z,12.36
2019-01-10T00:38:49.145Z,12.32
2019-01-10T00:41:30.303Z,12.32
2019-01-10T00:44:11.184Z,12.31
2019-01-10T00:46:51.954Z,12.29
2019-01-10T00:49:32.544Z,12.34
2019-01-10T00:52:12.990Z,12.36
2019-01-10T00:54:53.850Z,12.44
2019-01-10T00:57:34.705Z,12.46
2019-01-10T01:00:16.322Z,12.42
2019-01-10T01:02:57.222Z,12.47
2019-01-10T01:05:37.939Z,12.44
2019-01-10T01:08:18.411Z,12.38
2019-01-10T01:10:59.678Z,12.42
2019-01-10T01:13:40.252Z,12.42
2019-01-10T01:16:22.135Z,12.46
2019-01-10T01:19:02.502Z,12.46
2019-01-10T01:21:43.674Z,12.47
2019-01-10T01:24:24.386Z,12.55
2019-01-10T01:27:05.145Z,12.71
2019-01-10T01:29:46.098Z,12.80
2019-01-10T01:32:26.495Z,12.84
2019-01-10T01:35:07.904Z,12.93
2019-01-10T01:37:48.522Z,13.02
2019-01-10T01:40:29.584Z,13.11
2019-01-10T01:43:09.863Z,13.23
2019-01-10T01:45:50.494Z,13.36
2019-01-10T01:48:31.366Z,13.49
2019-01-10T01:51:12.389Z,13.67
2019-01-10T01:53:53.103Z,13.96
2019-01-10T01:56:33.905Z,14.16
2019-01-10T01:59:14.425Z,14.35
2019-01-10T02:01:55.324Z,14.50
2019-01-10T02:04:36.285Z,14.68
2019-01-10T02:07:17.064Z,14.87
2019-01-10T02:09:57.820Z,15.01
2019-01-10T02:12:39.076Z,15.21
2019-01-10T02:15:20.066Z,15.41
2019-01-10T02:18:01.619Z,15.56
2019-01-10T02:20:42.075Z,15.76
2019-01-10T02:23:22.985Z,15.93
2019-01-10T02:26:03.557Z,16.19
2019-01-10T02:28:44.357Z,16.59
2019-01-10T02:31:25.507Z,17.13
2019-01-10T02:34:06.747Z,17.67
2019-01-10T02:36:47.157Z,18.14
2019-01-10T02:39:28.119Z,18.55
2019-01-10T02:42:09.186Z,19.00
2019-01-10T02:44:50.268Z,19.41
2019-01-10T02:47:31.145Z,19.74
2019-01-10T02:50:12.125Z,20.05
2019-01-10T02:52:52.901Z,20.15
2019-01-10T02:55:33.791Z,20.26
2019-01-10T02:58:14.588Z,20.51
2019-01-10T03:00:54.894Z,20.75
2019-01-10T03:03:35.777Z,20.95
2019-01-10T03:06:16.265Z,21.07
2019-01-10T03:08:57.113Z,21.19
2019-01-10T03:11:37.323Z,21.23
2019-01-10T03:14:18.584Z,21.43
2019-01-10T03:16:59.725Z,21.72
2019-01-10T03:19:40.353Z,21.55
2019-01-10T03:22:21.141Z,21.56
2019-01-10T03:25:02.363Z,21.73
2019-01-10T03:27:42.477Z,21.82
2019-01-10T03:30:24.023Z,21.95
2019-01-10T03:33:05.036Z,22.01
2019-01-10T03:35:46.269Z,22.18
2019-01-10T03:38:26.398Z,22.50
2019-01-10T03:41:07.061Z,22.84
2019-01-10T03:43:47.938Z,22.95
2019-01-10T03:46:29.450Z,22.96
2019-01-10T03:49:10.899Z,22.85
2019-01-10T03:51:52.666Z,22.88
2019-01-10T03:54:33.638Z,22.98
2019-01-10T03:57:14.557Z,23.20
2019-01-10T03:59:55.310Z,23.46
2019-01-10T04:02:36.392Z,23.64
2019-01-10T04:05:17.191Z,23.43
2019-01-10T04:07:58.207Z,23.27
2019-01-10T04:10:38.879Z,23.21
2019-01-10T04:13:19.722Z,23.26
2019-01-10T04:16:00.110Z,23.23
2019-01-10T04:18:40.866Z,23.25
2019-01-10T04:21:21.069Z,23.41
2019-01-10T04:24:02.105Z,23.66
2019-01-10T04:26:42.946Z,23.97
2019-01-10T04:29:23.961Z,24.15
2019-01-10T04:32:04.837Z,24.31
2019-01-10T04:34:46.130Z,24.29
2019-01-10T04:37:27.177Z,24.29
2019-01-10T04:40:08.493Z,24.36
2019-01-10T04:42:49.468Z,24.41
2019-01-10T04:45:29.866Z,24.27
2019-01-10T04:48:10.984Z,24.32
2019-01-10T04:50:51.552Z,24.33
2019-01-10T04:53:32.565Z,24.23
2019-01-10T04:56:13.481Z,23.99
2019-01-10T04:58:54.263Z,23.97
2019-01-10T05:01:34.503Z,24.10
2019-01-10T05:04:15.192Z,24.09
2019-01-10T05:06:55.069Z,24.17
2019-01-10T05:09:35.383Z,24.33
2019-01-10T05:12:16.141Z,24.25
2019-01-10T05:14:56.633Z,23.93
2019-01-10T05:17:37.794Z,24.37
2019-01-10T05:20:17.841Z,24.62
2019-01-10T05:22:57.997Z,24.81
2019-01-10T05:25:38.745Z,25.21
2019-01-10T05:28:19.321Z,25.46
2019-01-10T05:30:59.783Z,25.50
2019-01-10T05:33:40.112Z,25.57
2019-01-10T05:36:20.835Z,25.75
2019-01-10T05:39:01.152Z,25.87
2019-01-10T05:41:41.269Z,25.74
2019-01-10T05:44:26.592Z,25.73
2019-01-10T05:47:02.462Z,26.01
2019-01-10T05:49:42.599Z,25.89
2019-01-10T05:52:22.654Z,26.03
2019-01-10T05:55:03.224Z,26.25
2019-01-10T05:57:43.266Z,26.28
2019-01-10T06:00:23.463Z,26.10
2019-01-10T06:03:03.592Z,26.12
2019-01-10T06:05:44.084Z,25.74
2019-01-10T06:08:25.218Z,25.95
2019-01-10T06:11:05.808Z,26.12
2019-01-10T06:13:46.745Z,26.11
2019-01-10T06:16:28.512Z,26.55
2019-01-10T06:19:09.411Z,26.66
2019-01-10T06:21:50.743Z,26.70
2019-01-10T06:24:31.794Z,26.91
2019-01-10T06:27:12.676Z,26.90
2019-01-10T06:29:53.148Z,26.93
2019-01-10T06:32:33.671Z,26.70
2019-01-10T06:38:00.993Z,27.09
2019-01-10T06:40:42.265Z,27.41
2019-01-10T06:43:23.314Z,27.59
2019-01-10T06:46:04.200Z,27.59
2019-01-10T06:48:44.587Z,27.39
2019-01-10T06:51:25.285Z,27.42
2019-01-10T06:54:05.868Z,27.63
2019-01-10T06:56:46.755Z,27.79
2019-01-10T06:59:27.543Z,27.64
2019-01-10T07:02:12.205Z,27.30
2019-01-10T07:04:53.346Z,26.91
2019-01-10T07:07:33.916Z,27.21
2019-01-10T07:10:14.788Z,26.88
2019-01-10T07:12:55.427Z,27.17
2019-01-10T07:15:35.719Z,27.36
2019-01-10T07:18:16.559Z,27.63
2019-01-10T07:20:57.363Z,27.98
2019-01-10T07:23:37.907Z,28.08
2019-01-10T07:26:18.361Z,28.15
2019-01-10T07:28:58.663Z,27.78
2019-01-10T07:31:38.991Z,27.84
2019-01-10T07:34:19.474Z,27.79
2019-01-10T07:36:59.713Z,27.57
2019-01-10T07:39:40.276Z,26.22
2019-01-10T07:42:20.718Z,26.85
2019-01-10T07:45:02.766Z,26.89
2019-01-10T07:47:43.073Z,26.82
2019-01-10T07:50:23.753Z,26.65
2019-01-10T07:53:04.230Z,26.76
2019-01-10T07:55:44.426Z,27.03
2019-01-10T07:58:25.352Z,26.89
2019-01-10T08:01:05.711Z,26.92
2019-01-10T08:03:46.467Z,26.69
2019-01-10T08:06:26.834Z,26.79
2019-01-10T08:09:08.353Z,26.77
2019-01-10T08:11:48.548Z,27.10
2019-01-10T08:14:28.908Z,27.16
2019-01-10T08:17:15.929Z,26.95
2019-01-10T08:19:51.704Z,26.91
2019-01-10T08:22:32.988Z,26.68
2019-01-10T08:25:13.347Z,26.64
2019-01-10T08:27:53.972Z,26.64
2019-01-10T08:30:34.984Z,26.76
2019-01-10T08:33:15.963Z,26.96
2019-01-10T08:35:56.826Z,27.18
2019-01-10T08:38:37.787Z,27.20
2019-01-10T08:41:18.754Z,27.01
2019-01-10T08:44:00.023Z,27.12
2019-01-10T08:46:40.792Z,27.03
2019-01-10T08:49:21.944Z,27.00
2019-01-10T08:52:02.985Z,26.90
2019-01-10T08:54:43.335Z,26.79
2019-01-10T08:57:24.343Z,26.70
2019-01-10T09:00:05.585Z,26.45
2019-01-10T09:02:47.065Z,26.46
2019-01-10T09:05:27.735Z,26.65
2019-01-10T09:08:08.732Z,26.72
2019-01-10T09:10:49.946Z,26.62
2019-01-10T09:13:31.234Z,26.40
2019-01-10T09:16:12.144Z,26.14
2019-01-10T09:18:53.233Z,26.18
2019-01-10T09:21:33.787Z,26.25
2019-01-10T09:24:14.584Z,26.11
2019-01-10T09:26:55.707Z,26.11
2019-01-10T09:29:36.705Z,26.15
2019-01-10T09:32:17.797Z,26.15
2019-01-10T09:34:58.905Z,26.02
2019-01-10T09:37:40.198Z,25.90
2019-01-10T09:40:21.784Z,25.89
2019-01-10T09:43:03.114Z,25.79
2019-01-10T09:45:44.026Z,25.77
2019-01-10T09:48:25.638Z,25.74
2019-01-10T09:51:06.134Z,25.68
2019-01-10T09:53:47.313Z,25.58
2019-01-10T09:56:28.571Z,25.61
2019-01-10T09:59:09.743Z,25.60
2019-01-10T10:01:51.390Z,25.61
2019-01-10T10:04:32.426Z,25.54
2019-01-10T10:07:13.741Z,25.50
2019-01-10T10:09:54.588Z,25.37
2019-01-10T10:12:35.701Z,25.33
2019-01-10T10:15:16.904Z,25.29
2019-01-10T10:17:57.793Z,25.21
2019-01-10T10:20:38.673Z,25.06
2019-01-10T10:23:26.703Z,24.88
2019-01-10T10:26:01.387Z,24.70
2019-01-10T10:28:42.909Z,24.56
2019-01-10T10:31:24.186Z,24.45
2019-01-10T10:34:05.465Z,24.37
2019-01-10T10:36:46.755Z,24.29
2019-01-10T10:39:27.711Z,24.28
2019-01-10T10:42:09.186Z,24.19
2019-01-10T10:44:50.022Z,24.13
2019-01-10T10:47:30.824Z,24.06
2019-01-10T10:50:11.746Z,24.00
2019-01-10T10:52:52.697Z,23.97
2019-01-10T10:55:33.186Z,23.88
2019-01-10T10:58:14.349Z,23.79
2019-01-10T11:00:55.437Z,23.66
2019-01-10T11:03:36.429Z,23.51
2019-01-10T11:06:17.354Z,23.36
2019-01-10T11:08:58.597Z,23.17
2019-01-10T11:11:39.386Z,22.98
2019-01-10T11:14:20.587Z,22.77
2019-01-10T11:17:01.802Z,22.60
2019-01-10T11:19:43.065Z,22.38
2019-01-10T11:22:24.065Z,22.15
2019-01-10T11:25:04.824Z,22.00
2019-01-10T11:27:45.794Z,21.80
2019-01-10T11:30:27.235Z,21.64
2019-01-10T11:33:08.260Z,21.43
2019-01-10T11:35:48.825Z,21.23
2019-01-10T11:38:29.914Z,21.00
2019-01-10T11:41:11.384Z,20.90
2019-01-10T11:43:52.296Z,20.80
2019-01-10T11:46:33.470Z,20.59
2019-01-10T11:49:14.042Z,20.47
2019-01-10T11:51:54.549Z,20.26
2019-01-10T11:54:35.459Z,20.11
2019-01-10T11:57:16.831Z,19.90
2019-01-10T11:59:57.597Z,19.75
2019-01-10T12:02:38.477Z,19.61
2019-01-10T12:05:18.775Z,19.54
2019-01-10T12:08:00.357Z,19.41
2019-01-10T12:10:41.266Z,19.30
2019-01-10T12:13:21.948Z,19.23
2019-01-10T12:16:02.920Z,19.17
2019-01-10T12:18:43.703Z,19.08
2019-01-10T12:21:24.864Z,18.96
2019-01-10T12:24:05.192Z,18.91
2019-01-10T12:26:45.506Z,18.83
2019-01-10T12:29:25.994Z,18.71
2019-01-10T12:32:06.554Z,18.63
2019-01-10T12:34:47.382Z,18.55
2019-01-10T12:37:27.884Z,18.48
2019-01-10T12:40:08.142Z,18.44
2019-01-10T12:42:48.224Z,18.39
2019-01-10T12:45:28.635Z,18.29
2019-01-10T12:48:11.257Z,18.23
2019-01-10T12:50:51.301Z,18.17
2019-01-10T12:53:31.624Z,18.24
2019-01-10T12:56:11.870Z,18.06
2019-01-10T12:58:51.986Z,18.02
2019-01-10T13:01:32.713Z,17.96
2019-01-10T13:04:13.153Z,17.87
2019-01-10T13:06:53.196Z,17.76
2019-01-10T13:09:33.574Z,17.71
2019-01-10T13:12:13.828Z,17.71
2019-01-10T13:14:55.069Z,17.59
2019-01-10T13:17:35.162Z,17.56
2019-01-10T13:20:16.309Z,17.47
2019-01-10T13:22:56.428Z,17.48
2019-01-10T13:25:37.952Z,17.46
2019-01-10T13:28:18.749Z,17.51
2019-01-10T13:30:59.008Z,17.40
2019-01-10T13:33:42.229Z,17.32
2019-01-10T13:36:22.551Z,17.24
2019-01-10T13:41:52.744Z,17.18
2019-01-10T13:44:32.877Z,17.09
2019-01-10T13:47:13.018Z,17.01
2019-01-10T13:49:53.672Z,16.93
2019-01-10T13:52:34.028Z,16.82
2019-01-10T13:55:14.400Z,16.74
2019-01-10T13:57:55.023Z,16.63
2019-01-10T14:00:37.270Z,16.57
2019-01-10T14:03:17.864Z,16.52
2019-01-10T14:05:58.187Z,16.46
2019-01-10T14:08:38.313Z,16.42
2019-01-10T14:11:19.237Z,16.39
2019-01-10T14:13:59.594Z,16.41
2019-01-10T14:16:39.716Z,16.39
2019-01-10T14:19:22.234Z,16.44
2019-01-10T14:22:07.505Z,16.35
2019-01-10T14:24:50.125Z,16.32
2019-01-10T14:27:30.713Z,16.32
2019-01-10T14:30:12.466Z,16.31
2019-01-10T14:32:52.827Z,16.33
2019-01-10T14:35:32.834Z,16.39
2019-01-10T14:38:12.671Z,16.31
2019-01-10T14:40:53.095Z,16.12
2019-01-10T14:43:33.519Z,16.10
2019-01-10T14:46:13.750Z,16.06
2019-01-10T14:48:53.992Z,15.93
2019-01-10T14:51:34.033Z,15.90
2019-01-10T14:54:16.079Z,15.85
2019-01-10T14:59:33.554Z,15.81
2019-01-10T15:04:55.634Z,15.68
2019-01-10T15:07:25.391Z,15.69
2019-01-10T15:09:54.601Z,15.64
2019-01-10T15:12:28.622Z,15.61
2019-01-10T15:15:01.249Z,15.51
2019-01-10T15:17:32.469Z,15.45
2019-01-10T15:22:50.040Z,15.30
2019-01-10T15:25:22.837Z,15.24
2019-01-10T15:27:55.089Z,15.18
2019-01-10T15:30:25.909Z,15.14
2019-01-10T15:32:58.505Z,15.13
2019-01-10T16:01:07.787Z,14.96
2019-01-10T16:18:52.156Z,14.59
2019-01-10T16:54:32.351Z,14.17
2019-01-10T17:02:07.217Z,14.16
2019-01-10T17:04:38.824Z,14.19
2019-01-10T17:37:40.195Z,13.96
2019-01-10T18:51:22.354Z,13.49
